sensor_id;sensor_type;location;lat;lon;timestamp;P1;durP1;ratioP1;P2;durP2;ratioP2
56116;SDS011;41989;45.356;20.392;2024-01-07T00:01:23;129.93;;;52.00;;
56116;SDS011;41989;45.356;20.392;2024-01-07T00:03:52;109.32;;;44.15;;
56116;SDS011;41989;45.356;20.392;2024-01-07T00:06:18;45.67;;;19.65;;
56116;SDS011;41989;45.356;20.392;2024-01-07T00:08:44;109.25;;;41.25;;
56116;SDS011;41989;45.356;20.392;2024-01-07T00:11:10;38.50;;;15.68;;
56116;SDS011;41989;45.356;20.392;2024-01-07T00:13:36;58.35;;;24.05;;
56116;SDS011;41989;45.356;20.392;2024-01-07T00:16:02;49.63;;;28.02;;
56116;SDS011;41989;45.356;20.392;2024-01-07T00:18:29;28.40;;;16.35;;
56116;SDS011;41989;45.356;20.392;2024-01-07T00:20:55;49.75;;;26.35;;
56116;SDS011;41989;45.356;20.392;2024-01-07T00:23:21;53.95;;;29.55;;
56116;SDS011;41989;45.356;20.392;2024-01-07T00:25:48;78.15;;;40.17;;
56116;SDS011;41989;45.356;20.392;2024-01-07T00:28:14;64.22;;;35.22;;
56116;SDS011;41989;45.356;20.392;2024-01-07T00:30:40;21.65;;;11.95;;
56116;SDS011;41989;45.356;20.392;2024-01-07T00:33:06;50.67;;;28.13;;
56116;SDS011;41989;45.356;20.392;2024-01-07T00:35:32;32.58;;;18.30;;
56116;SDS011;41989;45.356;20.392;2024-01-07T00:37:58;26.15;;;14.98;;
56116;SDS011;41989;45.356;20.392;2024-01-07T00:40:25;27.88;;;15.88;;
56116;SDS011;41989;45.356;20.392;2024-01-07T00:42:51;17.27;;;10.35;;
56116;SDS011;41989;45.356;20.392;2024-01-07T00:45:18;8.90;;;5.05;;
56116;SDS011;41989;45.356;20.392;2024-01-07T00:47:44;20.50;;;11.63;;
56116;SDS011;41989;45.356;20.392;2024-01-07T00:50:10;16.25;;;8.95;;
56116;SDS011;41989;45.356;20.392;2024-01-07T00:52:36;17.27;;;9.88;;
56116;SDS011;41989;45.356;20.392;2024-01-07T00:55:03;17.05;;;10.52;;
56116;SDS011;41989;45.356;20.392;2024-01-07T00:57:31;14.32;;;7.63;;
56116;SDS011;41989;45.356;20.392;2024-01-07T00:59:57;15.88;;;9.15;;
56116;SDS011;41989;45.356;20.392;2024-01-07T01:02:23;10.88;;;6.13;;
56116;SDS011;41989;45.356;20.392;2024-01-07T01:04:49;13.70;;;8.75;;
56116;SDS011;41989;45.356;20.392;2024-01-07T01:07:16;8.48;;;4.38;;
56116;SDS011;41989;45.356;20.392;2024-01-07T01:09:42;13.43;;;4.38;;
56116;SDS011;41989;45.356;20.392;2024-01-07T01:12:08;15.68;;;9.63;;
56116;SDS011;41989;45.356;20.392;2024-01-07T01:14:34;8.20;;;3.70;;
56116;SDS011;41989;45.356;20.392;2024-01-07T01:17:00;16.98;;;9.77;;
56116;SDS011;41989;45.356;20.392;2024-01-07T01:19:27;11.05;;;6.25;;
56116;SDS011;41989;45.356;20.392;2024-01-07T01:21:53;16.85;;;9.90;;
56116;SDS011;41989;45.356;20.392;2024-01-07T01:24:19;9.45;;;5.60;;
56116;SDS011;41989;45.356;20.392;2024-01-07T01:26:45;7.45;;;4.03;;
56116;SDS011;41989;45.356;20.392;2024-01-07T01:29:11;8.23;;;5.25;;
56116;SDS011;41989;45.356;20.392;2024-01-07T01:31:37;11.02;;;6.05;;
56116;SDS011;41989;45.356;20.392;2024-01-07T01:34:03;10.57;;;7.43;;
56116;SDS011;41989;45.356;20.392;2024-01-07T01:36:33;11.00;;;5.38;;
56116;SDS011;41989;45.356;20.392;2024-01-07T01:38:59;38.75;;;16.58;;
56116;SDS011;41989;45.356;20.392;2024-01-07T01:41:25;37.00;;;22.02;;
56116;SDS011;41989;45.356;20.392;2024-01-07T01:43:51;48.78;;;31.08;;
56116;SDS011;41989;45.356;20.392;2024-01-07T01:46:17;38.63;;;22.98;;
56116;SDS011;41989;45.356;20.392;2024-01-07T01:48:43;35.55;;;18.77;;
56116;SDS011;41989;45.356;20.392;2024-01-07T01:51:10;25.70;;;13.93;;
56116;SDS011;41989;45.356;20.392;2024-01-07T01:53:36;28.00;;;15.55;;
56116;SDS011;41989;45.356;20.392;2024-01-07T01:56:03;31.88;;;16.55;;
56116;SDS011;41989;45.356;20.392;2024-01-07T01:58:29;42.58;;;25.00;;
56116;SDS011;41989;45.356;20.392;2024-01-07T02:00:56;32.72;;;18.85;;
56116;SDS011;41989;45.356;20.392;2024-01-07T02:03:22;44.63;;;28.05;;
56116;SDS011;41989;45.356;20.392;2024-01-07T02:05:49;50.55;;;25.13;;
56116;SDS011;41989;45.356;20.392;2024-01-07T02:08:17;50.95;;;26.40;;
56116;SDS011;41989;45.356;20.392;2024-01-07T02:10:44;66.68;;;33.60;;
56116;SDS011;41989;45.356;20.392;2024-01-07T02:13:10;58.28;;;30.58;;
56116;SDS011;41989;45.356;20.392;2024-01-07T02:15:36;52.70;;;30.17;;
56116;SDS011;41989;45.356;20.392;2024-01-07T02:18:05;58.03;;;32.85;;
56116;SDS011;41989;45.356;20.392;2024-01-07T02:20:31;63.15;;;37.25;;
56116;SDS011;41989;45.356;20.392;2024-01-07T02:22:57;65.75;;;39.13;;
56116;SDS011;41989;45.356;20.392;2024-01-07T02:25:24;58.35;;;33.40;;
56116;SDS011;41989;45.356;20.392;2024-01-07T02:27:52;68.15;;;34.15;;
56116;SDS011;41989;45.356;20.392;2024-01-07T02:30:18;33.40;;;16.50;;
56116;SDS011;41989;45.356;20.392;2024-01-07T02:32:45;16.50;;;11.40;;
56116;SDS011;41989;45.356;20.392;2024-01-07T02:35:11;18.08;;;10.23;;
56116;SDS011;41989;45.356;20.392;2024-01-07T02:37:37;20.20;;;10.13;;
56116;SDS011;41989;45.356;20.392;2024-01-07T02:40:03;21.45;;;11.35;;
56116;SDS011;41989;45.356;20.392;2024-01-07T02:42:30;23.08;;;15.13;;
56116;SDS011;41989;45.356;20.392;2024-01-07T02:44:56;43.22;;;22.15;;
56116;SDS011;41989;45.356;20.392;2024-01-07T02:47:22;33.75;;;17.25;;
56116;SDS011;41989;45.356;20.392;2024-01-07T02:49:48;43.20;;;20.60;;
56116;SDS011;41989;45.356;20.392;2024-01-07T02:52:14;28.45;;;16.02;;
56116;SDS011;41989;45.356;20.392;2024-01-07T02:54:40;45.67;;;21.75;;
56116;SDS011;41989;45.356;20.392;2024-01-07T02:57:06;49.55;;;23.98;;
56116;SDS011;41989;45.356;20.392;2024-01-07T02:59:33;26.80;;;16.23;;
56116;SDS011;41989;45.356;20.392;2024-01-07T03:01:59;25.85;;;13.63;;
56116;SDS011;41989;45.356;20.392;2024-01-07T03:04:25;49.25;;;30.25;;
56116;SDS011;41989;45.356;20.392;2024-01-07T03:06:51;34.03;;;22.38;;
56116;SDS011;41989;45.356;20.392;2024-01-07T03:09:17;40.30;;;23.80;;
56116;SDS011;41989;45.356;20.392;2024-01-07T03:11:43;66.30;;;40.88;;
56116;SDS011;41989;45.356;20.392;2024-01-07T03:14:10;50.80;;;33.08;;
56116;SDS011;41989;45.356;20.392;2024-01-07T03:16:36;41.35;;;26.02;;
56116;SDS011;41989;45.356;20.392;2024-01-07T03:19:02;30.17;;;19.35;;
56116;SDS011;41989;45.356;20.392;2024-01-07T03:21:29;24.33;;;12.95;;
56116;SDS011;41989;45.356;20.392;2024-01-07T03:23:55;13.48;;;7.78;;
56116;SDS011;41989;45.356;20.392;2024-01-07T03:26:21;18.48;;;10.25;;
56116;SDS011;41989;45.356;20.392;2024-01-07T03:28:48;15.80;;;7.18;;
56116;SDS011;41989;45.356;20.392;2024-01-07T03:31:15;11.48;;;7.43;;
56116;SDS011;41989;45.356;20.392;2024-01-07T03:33:42;15.45;;;10.23;;
56116;SDS011;41989;45.356;20.392;2024-01-07T03:36:08;14.07;;;9.18;;
56116;SDS011;41989;45.356;20.392;2024-01-07T03:38:35;15.45;;;7.82;;
56116;SDS011;41989;45.356;20.392;2024-01-07T03:41:01;15.75;;;8.32;;
56116;SDS011;41989;45.356;20.392;2024-01-07T03:43:28;22.38;;;9.68;;
56116;SDS011;41989;45.356;20.392;2024-01-07T03:45:54;19.95;;;12.48;;
56116;SDS011;41989;45.356;20.392;2024-01-07T03:48:20;13.23;;;9.13;;
56116;SDS011;41989;45.356;20.392;2024-01-07T03:50:46;14.88;;;7.93;;
56116;SDS011;41989;45.356;20.392;2024-01-07T03:53:13;12.98;;;7.88;;
56116;SDS011;41989;45.356;20.392;2024-01-07T03:55:39;15.95;;;8.55;;
56116;SDS011;41989;45.356;20.392;2024-01-07T03:58:05;19.30;;;11.82;;
56116;SDS011;41989;45.356;20.392;2024-01-07T04:00:34;17.25;;;10.50;;
56116;SDS011;41989;45.356;20.392;2024-01-07T04:03:00;21.95;;;12.98;;
56116;SDS011;41989;45.356;20.392;2024-01-07T04:05:27;27.95;;;19.33;;
56116;SDS011;41989;45.356;20.392;2024-01-07T04:07:54;37.67;;;26.23;;
56116;SDS011;41989;45.356;20.392;2024-01-07T04:10:20;93.50;;;63.95;;
56116;SDS011;41989;45.356;20.392;2024-01-07T04:12:49;96.97;;;61.03;;
56116;SDS011;41989;45.356;20.392;2024-01-07T04:15:15;102.75;;;67.35;;
56116;SDS011;41989;45.356;20.392;2024-01-07T04:17:41;130.38;;;76.97;;
56116;SDS011;41989;45.356;20.392;2024-01-07T04:20:07;97.90;;;61.67;;
56116;SDS011;41989;45.356;20.392;2024-01-07T04:22:33;104.13;;;68.20;;
56116;SDS011;41989;45.356;20.392;2024-01-07T04:25:00;98.43;;;60.35;;
56116;SDS011;41989;45.356;20.392;2024-01-07T04:27:26;88.85;;;54.03;;
56116;SDS011;41989;45.356;20.392;2024-01-07T04:29:52;88.53;;;54.70;;
56116;SDS011;41989;45.356;20.392;2024-01-07T04:32:18;96.93;;;63.25;;
56116;SDS011;41989;45.356;20.392;2024-01-07T04:34:45;114.88;;;73.10;;
56116;SDS011;41989;45.356;20.392;2024-01-07T04:37:11;106.88;;;68.60;;
56116;SDS011;41989;45.356;20.392;2024-01-07T04:39:37;83.80;;;48.97;;
56116;SDS011;41989;45.356;20.392;2024-01-07T04:42:03;47.80;;;28.27;;
56116;SDS011;41989;45.356;20.392;2024-01-07T04:44:29;33.15;;;19.75;;
56116;SDS011;41989;45.356;20.392;2024-01-07T04:46:56;22.50;;;14.25;;
56116;SDS011;41989;45.356;20.392;2024-01-07T04:49:22;32.22;;;12.98;;
56116;SDS011;41989;45.356;20.392;2024-01-07T04:51:48;26.52;;;11.27;;
56116;SDS011;41989;45.356;20.392;2024-01-07T04:54:14;20.38;;;10.18;;
56116;SDS011;41989;45.356;20.392;2024-01-07T04:56:40;13.48;;;8.90;;
56116;SDS011;41989;45.356;20.392;2024-01-07T04:59:06;15.27;;;8.57;;
56116;SDS011;41989;45.356;20.392;2024-01-07T05:01:32;13.55;;;9.10;;
56116;SDS011;41989;45.356;20.392;2024-01-07T05:03:59;18.98;;;10.07;;
56116;SDS011;41989;45.356;20.392;2024-01-07T05:06:25;15.00;;;9.52;;
56116;SDS011;41989;45.356;20.392;2024-01-07T05:08:51;13.73;;;9.20;;
56116;SDS011;41989;45.356;20.392;2024-01-07T05:11:17;17.02;;;8.75;;
56116;SDS011;41989;45.356;20.392;2024-01-07T05:13:43;15.43;;;9.02;;
56116;SDS011;41989;45.356;20.392;2024-01-07T05:16:17;13.43;;;8.20;;
56116;SDS011;41989;45.356;20.392;2024-01-07T05:18:44;15.27;;;8.93;;
56116;SDS011;41989;45.356;20.392;2024-01-07T05:21:13;13.48;;;8.30;;
56116;SDS011;41989;45.356;20.392;2024-01-07T05:23:40;21.30;;;8.80;;
56116;SDS011;41989;45.356;20.392;2024-01-07T05:26:06;16.42;;;8.35;;
56116;SDS011;41989;45.356;20.392;2024-01-07T05:28:32;15.80;;;8.23;;
56116;SDS011;41989;45.356;20.392;2024-01-07T05:30:58;13.55;;;9.00;;
56116;SDS011;41989;45.356;20.392;2024-01-07T05:33:24;13.85;;;9.02;;
56116;SDS011;41989;45.356;20.392;2024-01-07T05:35:50;18.98;;;9.73;;
56116;SDS011;41989;45.356;20.392;2024-01-07T05:38:17;16.75;;;9.88;;
56116;SDS011;41989;45.356;20.392;2024-01-07T05:40:43;15.65;;;8.88;;
56116;SDS011;41989;45.356;20.392;2024-01-07T05:43:09;14.55;;;9.55;;
56116;SDS011;41989;45.356;20.392;2024-01-07T05:45:35;13.13;;;8.95;;
56116;SDS011;41989;45.356;20.392;2024-01-07T05:48:01;13.65;;;9.13;;
56116;SDS011;41989;45.356;20.392;2024-01-07T05:50:27;15.10;;;8.65;;
56116;SDS011;41989;45.356;20.392;2024-01-07T05:52:53;13.60;;;8.30;;
56116;SDS011;41989;45.356;20.392;2024-01-07T05:55:19;13.35;;;8.40;;
56116;SDS011;41989;45.356;20.392;2024-01-07T05:57:46;12.75;;;7.78;;
56116;SDS011;41989;45.356;20.392;2024-01-07T06:00:12;12.93;;;8.25;;
56116;SDS011;41989;45.356;20.392;2024-01-07T06:02:38;14.68;;;8.85;;
56116;SDS011;41989;45.356;20.392;2024-01-07T06:05:05;14.15;;;8.95;;
56116;SDS011;41989;45.356;20.392;2024-01-07T06:07:31;14.25;;;8.75;;
56116;SDS011;41989;45.356;20.392;2024-01-07T06:09:58;17.02;;;8.73;;
56116;SDS011;41989;45.356;20.392;2024-01-07T06:12:24;15.68;;;9.65;;
56116;SDS011;41989;45.356;20.392;2024-01-07T06:14:50;17.38;;;10.30;;
56116;SDS011;41989;45.356;20.392;2024-01-07T06:17:17;15.95;;;8.73;;
56116;SDS011;41989;45.356;20.392;2024-01-07T06:19:43;17.30;;;9.32;;
56116;SDS011;41989;45.356;20.392;2024-01-07T06:22:11;17.08;;;9.10;;
56116;SDS011;41989;45.356;20.392;2024-01-07T06:24:38;11.65;;;7.55;;
56116;SDS011;41989;45.356;20.392;2024-01-07T06:27:04;11.05;;;7.10;;
56116;SDS011;41989;45.356;20.392;2024-01-07T06:29:30;11.98;;;8.43;;
56116;SDS011;41989;45.356;20.392;2024-01-07T06:31:56;13.93;;;7.15;;
56116;SDS011;41989;45.356;20.392;2024-01-07T06:34:22;11.23;;;7.50;;
56116;SDS011;41989;45.356;20.392;2024-01-07T06:36:48;17.05;;;8.75;;
56116;SDS011;41989;45.356;20.392;2024-01-07T06:39:14;17.20;;;8.48;;
56116;SDS011;41989;45.356;20.392;2024-01-07T06:41:41;15.13;;;8.80;;
56116;SDS011;41989;45.356;20.392;2024-01-07T06:44:07;13.50;;;7.95;;
56116;SDS011;41989;45.356;20.392;2024-01-07T06:46:33;14.52;;;7.72;;
56116;SDS011;41989;45.356;20.392;2024-01-07T06:48:59;14.07;;;6.45;;
56116;SDS011;41989;45.356;20.392;2024-01-07T06:51:26;11.13;;;6.65;;
56116;SDS011;41989;45.356;20.392;2024-01-07T06:53:52;8.85;;;6.18;;
56116;SDS011;41989;45.356;20.392;2024-01-07T06:56:18;12.15;;;6.28;;
56116;SDS011;41989;45.356;20.392;2024-01-07T06:58:44;9.95;;;6.53;;
56116;SDS011;41989;45.356;20.392;2024-01-07T07:01:11;10.57;;;7.07;;
56116;SDS011;41989;45.356;20.392;2024-01-07T07:03:37;11.18;;;6.70;;
56116;SDS011;41989;45.356;20.392;2024-01-07T07:06:06;12.57;;;7.43;;
56116;SDS011;41989;45.356;20.392;2024-01-07T07:08:32;13.20;;;7.18;;
56116;SDS011;41989;45.356;20.392;2024-01-07T07:10:58;12.75;;;7.57;;
56116;SDS011;41989;45.356;20.392;2024-01-07T07:13:26;15.35;;;8.45;;
56116;SDS011;41989;45.356;20.392;2024-01-07T07:15:52;19.13;;;9.65;;
56116;SDS011;41989;45.356;20.392;2024-01-07T07:18:18;21.55;;;11.95;;
56116;SDS011;41989;45.356;20.392;2024-01-07T07:20:44;19.17;;;12.48;;
56116;SDS011;41989;45.356;20.392;2024-01-07T07:23:11;20.92;;;12.32;;
56116;SDS011;41989;45.356;20.392;2024-01-07T07:25:37;24.80;;;13.40;;
56116;SDS011;41989;45.356;20.392;2024-01-07T07:28:03;16.83;;;12.23;;
56116;SDS011;41989;45.356;20.392;2024-01-07T07:30:29;21.20;;;12.98;;
56116;SDS011;41989;45.356;20.392;2024-01-07T07:32:55;22.75;;;12.90;;
56116;SDS011;41989;45.356;20.392;2024-01-07T07:35:24;24.30;;;13.75;;
56116;SDS011;41989;45.356;20.392;2024-01-07T07:37:50;22.42;;;13.35;;
56116;SDS011;41989;45.356;20.392;2024-01-07T07:40:16;25.85;;;15.43;;
56116;SDS011;41989;45.356;20.392;2024-01-07T07:42:42;21.48;;;13.80;;
56116;SDS011;41989;45.356;20.392;2024-01-07T07:45:08;28.83;;;18.30;;
56116;SDS011;41989;45.356;20.392;2024-01-07T07:47:35;54.17;;;35.30;;
56116;SDS011;41989;45.356;20.392;2024-01-07T07:50:01;45.63;;;31.63;;
56116;SDS011;41989;45.356;20.392;2024-01-07T07:52:27;38.97;;;24.88;;
56116;SDS011;41989;45.356;20.392;2024-01-07T07:54:53;30.75;;;20.25;;
56116;SDS011;41989;45.356;20.392;2024-01-07T07:57:20;53.67;;;35.80;;
56116;SDS011;41989;45.356;20.392;2024-01-07T07:59:46;74.57;;;46.88;;
56116;SDS011;41989;45.356;20.392;2024-01-07T08:02:12;93.75;;;46.15;;
56116;SDS011;41989;45.356;20.392;2024-01-07T08:04:39;87.55;;;42.78;;
56116;SDS011;41989;45.356;20.392;2024-01-07T08:07:06;83.30;;;42.75;;
56116;SDS011;41989;45.356;20.392;2024-01-07T08:09:32;66.43;;;37.45;;
56116;SDS011;41989;45.356;20.392;2024-01-07T08:12:01;59.28;;;36.42;;
56116;SDS011;41989;45.356;20.392;2024-01-07T08:14:28;52.78;;;26.60;;
56116;SDS011;41989;45.356;20.392;2024-01-07T08:16:54;34.15;;;21.00;;
56116;SDS011;41989;45.356;20.392;2024-01-07T08:19:20;29.75;;;20.60;;
56116;SDS011;41989;45.356;20.392;2024-01-07T08:21:46;31.05;;;19.15;;
56116;SDS011;41989;45.356;20.392;2024-01-07T08:24:12;32.72;;;19.98;;
56116;SDS011;41989;45.356;20.392;2024-01-07T08:26:38;23.20;;;16.65;;
56116;SDS011;41989;45.356;20.392;2024-01-07T08:29:04;26.02;;;17.30;;
56116;SDS011;41989;45.356;20.392;2024-01-07T08:31:31;29.25;;;20.10;;
56116;SDS011;41989;45.356;20.392;2024-01-07T08:33:57;34.28;;;21.45;;
56116;SDS011;41989;45.356;20.392;2024-01-07T08:36:23;63.75;;;38.22;;
56116;SDS011;41989;45.356;20.392;2024-01-07T08:38:49;31.75;;;22.05;;
56116;SDS011;41989;45.356;20.392;2024-01-07T08:41:16;44.25;;;27.30;;
56116;SDS011;41989;45.356;20.392;2024-01-07T08:43:42;18.23;;;12.55;;
56116;SDS011;41989;45.356;20.392;2024-01-07T08:46:10;21.05;;;14.35;;
56116;SDS011;41989;45.356;20.392;2024-01-07T08:48:36;61.28;;;37.08;;
56116;SDS011;41989;45.356;20.392;2024-01-07T08:51:03;30.40;;;20.27;;
56116;SDS011;41989;45.356;20.392;2024-01-07T08:53:29;36.05;;;21.27;;
56116;SDS011;41989;45.356;20.392;2024-01-07T08:55:55;34.75;;;19.73;;
56116;SDS011;41989;45.356;20.392;2024-01-07T08:58:22;36.53;;;20.85;;
56116;SDS011;41989;45.356;20.392;2024-01-07T09:00:48;57.25;;;32.08;;
56116;SDS011;41989;45.356;20.392;2024-01-07T09:03:14;41.92;;;22.92;;
56116;SDS011;41989;45.356;20.392;2024-01-07T09:05:40;42.08;;;29.45;;
56116;SDS011;41989;45.356;20.392;2024-01-07T09:08:06;39.13;;;25.40;;
56116;SDS011;41989;45.356;20.392;2024-01-07T09:10:32;39.00;;;21.17;;
56116;SDS011;41989;45.356;20.392;2024-01-07T09:12:59;36.00;;;21.25;;
56116;SDS011;41989;45.356;20.392;2024-01-07T09:15:25;28.88;;;17.35;;
56116;SDS011;41989;45.356;20.392;2024-01-07T09:17:51;22.63;;;15.98;;
56116;SDS011;41989;45.356;20.392;2024-01-07T09:20:17;18.95;;;13.60;;
56116;SDS011;41989;45.356;20.392;2024-01-07T09:22:44;26.10;;;17.30;;
56116;SDS011;41989;45.356;20.392;2024-01-07T09:25:11;27.70;;;12.95;;
56116;SDS011;41989;45.356;20.392;2024-01-07T09:27:37;18.58;;;11.20;;
56116;SDS011;41989;45.356;20.392;2024-01-07T09:30:03;20.27;;;12.15;;
56116;SDS011;41989;45.356;20.392;2024-01-07T09:32:29;25.65;;;16.63;;
56116;SDS011;41989;45.356;20.392;2024-01-07T09:34:55;26.27;;;14.98;;
56116;SDS011;41989;45.356;20.392;2024-01-07T09:37:22;20.65;;;13.25;;
56116;SDS011;41989;45.356;20.392;2024-01-07T09:39:49;22.73;;;17.20;;
56116;SDS011;41989;45.356;20.392;2024-01-07T09:42:17;30.70;;;24.08;;
56116;SDS011;41989;45.356;20.392;2024-01-07T09:44:43;18.10;;;13.77;;
56116;SDS011;41989;45.356;20.392;2024-01-07T09:47:13;16.55;;;12.15;;
56116;SDS011;41989;45.356;20.392;2024-01-07T09:49:40;19.05;;;11.75;;
56116;SDS011;41989;45.356;20.392;2024-01-07T09:52:07;18.70;;;11.15;;
56116;SDS011;41989;45.356;20.392;2024-01-07T09:54:33;13.15;;;9.27;;
56116;SDS011;41989;45.356;20.392;2024-01-07T09:57:02;16.20;;;9.43;;
56116;SDS011;41989;45.356;20.392;2024-01-07T09:59:31;16.40;;;8.63;;
56116;SDS011;41989;45.356;20.392;2024-01-07T10:01:57;26.55;;;13.25;;
56116;SDS011;41989;45.356;20.392;2024-01-07T10:04:24;30.02;;;15.10;;
56116;SDS011;41989;45.356;20.392;2024-01-07T10:06:50;27.52;;;16.35;;
56116;SDS011;41989;45.356;20.392;2024-01-07T10:09:17;42.47;;;26.23;;
56116;SDS011;41989;45.356;20.392;2024-01-07T10:11:46;46.13;;;23.67;;
56116;SDS011;41989;45.356;20.392;2024-01-07T10:14:13;35.33;;;17.70;;
56116;SDS011;41989;45.356;20.392;2024-01-07T10:16:39;35.55;;;17.20;;
56116;SDS011;41989;45.356;20.392;2024-01-07T10:19:05;25.60;;;12.45;;
56116;SDS011;41989;45.356;20.392;2024-01-07T10:21:32;32.22;;;14.88;;
56116;SDS011;41989;45.356;20.392;2024-01-07T10:24:08;26.70;;;13.90;;
56116;SDS011;41989;45.356;20.392;2024-01-07T10:26:38;29.15;;;15.13;;
56116;SDS011;41989;45.356;20.392;2024-01-07T10:29:04;20.52;;;12.95;;
56116;SDS011;41989;45.356;20.392;2024-01-07T10:31:33;26.77;;;13.63;;
56116;SDS011;41989;45.356;20.392;2024-01-07T10:33:59;19.80;;;12.20;;
56116;SDS011;41989;45.356;20.392;2024-01-07T10:36:26;30.20;;;13.95;;
56116;SDS011;41989;45.356;20.392;2024-01-07T10:38:52;27.60;;;13.48;;
56116;SDS011;41989;45.356;20.392;2024-01-07T10:41:18;19.80;;;11.05;;
56116;SDS011;41989;45.356;20.392;2024-01-07T10:43:48;21.20;;;10.80;;
56116;SDS011;41989;45.356;20.392;2024-01-07T10:46:15;17.42;;;10.88;;
56116;SDS011;41989;45.356;20.392;2024-01-07T10:48:46;20.83;;;10.27;;
56116;SDS011;41989;45.356;20.392;2024-01-07T10:51:15;18.55;;;9.88;;
56116;SDS011;41989;45.356;20.392;2024-01-07T10:53:42;20.33;;;11.65;;
56116;SDS011;41989;45.356;20.392;2024-01-07T10:56:11;23.15;;;14.27;;
56116;SDS011;41989;45.356;20.392;2024-01-07T10:58:38;21.73;;;13.98;;
56116;SDS011;41989;45.356;20.392;2024-01-07T11:01:05;22.42;;;14.20;;
56116;SDS011;41989;45.356;20.392;2024-01-07T11:03:40;24.40;;;16.23;;
56116;SDS011;41989;45.356;20.392;2024-01-07T11:11:38;22.92;;;15.55;;
56116;SDS011;41989;45.356;20.392;2024-01-07T11:14:33;26.83;;;16.10;;
56116;SDS011;41989;45.356;20.392;2024-01-07T11:16:54;29.10;;;20.02;;
56116;SDS011;41989;45.356;20.392;2024-01-07T11:19:20;23.88;;;12.30;;
56116;SDS011;41989;45.356;20.392;2024-01-07T11:21:46;22.40;;;12.82;;
56116;SDS011;41989;45.356;20.392;2024-01-07T11:24:57;19.77;;;12.50;;
56116;SDS011;41989;45.356;20.392;2024-01-07T11:27:01;65.32;;;25.33;;
56116;SDS011;41989;45.356;20.392;2024-01-07T11:29:27;40.92;;;17.55;;
56116;SDS011;41989;45.356;20.392;2024-01-07T11:31:54;35.30;;;16.48;;
56116;SDS011;41989;45.356;20.392;2024-01-07T11:37:11;17.42;;;11.82;;
56116;SDS011;41989;45.356;20.392;2024-01-07T11:39:47;17.05;;;12.13;;
56116;SDS011;41989;45.356;20.392;2024-01-07T11:42:13;20.83;;;11.55;;
56116;SDS011;41989;45.356;20.392;2024-01-07T11:44:52;15.95;;;11.10;;
56116;SDS011;41989;45.356;20.392;2024-01-07T11:47:19;17.75;;;11.60;;
56116;SDS011;41989;45.356;20.392;2024-01-07T11:49:46;23.95;;;15.50;;
56116;SDS011;41989;45.356;20.392;2024-01-07T11:52:12;19.73;;;11.95;;
56116;SDS011;41989;45.356;20.392;2024-01-07T11:54:39;16.92;;;10.73;;
56116;SDS011;41989;45.356;20.392;2024-01-07T11:57:05;18.30;;;10.77;;
56116;SDS011;41989;45.356;20.392;2024-01-07T11:59:35;16.13;;;10.73;;
56116;SDS011;41989;45.356;20.392;2024-01-07T12:02:02;18.25;;;10.50;;
56116;SDS011;41989;45.356;20.392;2024-01-07T12:04:30;20.83;;;12.95;;
56116;SDS011;41989;45.356;20.392;2024-01-07T12:06:56;24.17;;;15.13;;
56116;SDS011;41989;45.356;20.392;2024-01-07T12:09:22;19.52;;;13.50;;
56116;SDS011;41989;45.356;20.392;2024-01-07T12:11:48;20.15;;;13.10;;
56116;SDS011;41989;45.356;20.392;2024-01-07T12:14:14;21.92;;;12.98;;
56116;SDS011;41989;45.356;20.392;2024-01-07T12:16:41;22.75;;;14.25;;
56116;SDS011;41989;45.356;20.392;2024-01-07T12:19:08;20.30;;;15.63;;
56116;SDS011;41989;45.356;20.392;2024-01-07T12:21:35;20.67;;;14.95;;
56116;SDS011;41989;45.356;20.392;2024-01-07T12:24:01;22.80;;;15.90;;
56116;SDS011;41989;45.356;20.392;2024-01-07T12:26:27;28.58;;;18.10;;
56116;SDS011;41989;45.356;20.392;2024-01-07T12:28:58;29.45;;;19.33;;
56116;SDS011;41989;45.356;20.392;2024-01-07T12:31:29;29.13;;;20.05;;
56116;SDS011;41989;45.356;20.392;2024-01-07T12:33:56;30.95;;;20.27;;
56116;SDS011;41989;45.356;20.392;2024-01-07T12:36:22;30.92;;;20.15;;
56116;SDS011;41989;45.356;20.392;2024-01-07T12:38:49;29.92;;;20.60;;
56116;SDS011;41989;45.356;20.392;2024-01-07T12:41:16;24.33;;;17.88;;
56116;SDS011;41989;45.356;20.392;2024-01-07T12:43:42;24.00;;;18.05;;
56116;SDS011;41989;45.356;20.392;2024-01-07T12:46:08;22.27;;;17.15;;
56116;SDS011;41989;45.356;20.392;2024-01-07T12:48:34;26.40;;;18.65;;
56116;SDS011;41989;45.356;20.392;2024-01-07T12:51:01;30.85;;;21.88;;
56116;SDS011;41989;45.356;20.392;2024-01-07T12:53:27;30.02;;;20.38;;
56116;SDS011;41989;45.356;20.392;2024-01-07T12:55:54;29.73;;;20.10;;
56116;SDS011;41989;45.356;20.392;2024-01-07T12:58:20;26.85;;;20.00;;
56116;SDS011;41989;45.356;20.392;2024-01-07T13:00:46;30.80;;;21.20;;
56116;SDS011;41989;45.356;20.392;2024-01-07T13:03:13;26.13;;;17.63;;
56116;SDS011;41989;45.356;20.392;2024-01-07T13:05:45;27.55;;;19.77;;
56116;SDS011;41989;45.356;20.392;2024-01-07T13:08:14;29.20;;;19.30;;
56116;SDS011;41989;45.356;20.392;2024-01-07T13:10:41;28.83;;;19.08;;
56116;SDS011;41989;45.356;20.392;2024-01-07T13:13:07;26.48;;;19.98;;
56116;SDS011;41989;45.356;20.392;2024-01-07T13:15:35;28.42;;;19.95;;
56116;SDS011;41989;45.356;20.392;2024-01-07T13:18:01;28.05;;;19.58;;
56116;SDS011;41989;45.356;20.392;2024-01-07T13:20:27;32.75;;;23.45;;
56116;SDS011;41989;45.356;20.392;2024-01-07T13:22:53;31.20;;;22.73;;
56116;SDS011;41989;45.356;20.392;2024-01-07T13:25:20;30.55;;;20.73;;
56116;SDS011;41989;45.356;20.392;2024-01-07T13:27:46;30.15;;;21.70;;
56116;SDS011;41989;45.356;20.392;2024-01-07T13:30:12;25.40;;;19.42;;
56116;SDS011;41989;45.356;20.392;2024-01-07T13:32:39;24.88;;;18.45;;
56116;SDS011;41989;45.356;20.392;2024-01-07T13:35:06;27.40;;;19.15;;
56116;SDS011;41989;45.356;20.392;2024-01-07T13:37:36;27.30;;;19.85;;
56116;SDS011;41989;45.356;20.392;2024-01-07T13:40:02;26.67;;;19.75;;
56116;SDS011;41989;45.356;20.392;2024-01-07T13:42:31;28.27;;;21.25;;
56116;SDS011;41989;45.356;20.392;2024-01-07T13:44:58;26.97;;;20.90;;
56116;SDS011;41989;45.356;20.392;2024-01-07T13:47:24;23.65;;;20.00;;
56116;SDS011;41989;45.356;20.392;2024-01-07T13:49:50;28.55;;;22.25;;
56116;SDS011;41989;45.356;20.392;2024-01-07T13:52:16;21.60;;;18.13;;
56116;SDS011;41989;45.356;20.392;2024-01-07T13:54:43;19.00;;;15.43;;
56116;SDS011;41989;45.356;20.392;2024-01-07T13:57:09;22.48;;;17.13;;
56116;SDS011;41989;45.356;20.392;2024-01-07T13:59:35;25.83;;;18.10;;
56116;SDS011;41989;45.356;20.392;2024-01-07T14:02:01;23.83;;;18.25;;
56116;SDS011;41989;45.356;20.392;2024-01-07T14:04:29;20.02;;;16.15;;
56116;SDS011;41989;45.356;20.392;2024-01-07T14:06:56;17.83;;;13.35;;
56116;SDS011;41989;45.356;20.392;2024-01-07T14:09:23;16.88;;;12.75;;
56116;SDS011;41989;45.356;20.392;2024-01-07T14:11:49;19.92;;;13.13;;
56116;SDS011;41989;45.356;20.392;2024-01-07T14:14:16;18.77;;;14.65;;
56116;SDS011;41989;45.356;20.392;2024-01-07T14:16:44;17.13;;;13.73;;